createdAt,value
2018-08-10T00:00:03.519Z,25.65
2018-08-10T00:00:44.090Z,25.69
2018-08-10T00:01:24.676Z,25.6
2018-08-10T00:02:05.250Z,25.6
2018-08-10T00:02:45.798Z,25.55
2018-08-10T00:03:26.374Z,25.53
2018-08-10T00:04:06.961Z,25.65
2018-08-10T00:04:47.524Z,25.6
2018-08-10T00:05:28.099Z,25.58
2018-08-10T00:06:08.653Z,25.58
2018-08-10T00:06:49.239Z,25.55
2018-08-10T00:07:29.807Z,25.54
2018-08-10T00:08:10.382Z,25.6
2018-08-10T00:08:50.979Z,25.41
2018-08-10T00:09:31.501Z,25.47
2018-08-10T00:10:12.066Z,25.5
2018-08-10T00:10:52.627Z,25.43
2018-08-10T00:11:33.187Z,25.44
2018-08-10T00:12:13.758Z,25.43
2018-08-10T00:12:54.329Z,25.41
2018-08-10T00:13:34.894Z,25.36
2018-08-10T00:15:22.472Z,25.41
2018-08-10T00:16:03.042Z,25.41
2018-08-10T00:16:43.606Z,25.41
2018-08-10T00:17:24.169Z,25.4
2018-08-10T00:18:04.738Z,25.41
2018-08-10T00:18:45.298Z,25.46
2018-08-10T00:19:25.859Z,25.4
2018-08-10T00:20:06.442Z,25.4
2018-08-10T00:20:47.022Z,25.43
2018-08-10T00:21:27.598Z,25.43
2018-08-10T00:22:08.164Z,25.41
2018-08-10T00:22:48.737Z,25.41
2018-08-10T00:23:29.308Z,25.41
2018-08-10T00:24:09.875Z,25.29
2018-08-10T00:24:50.462Z,25.36
2018-08-10T00:25:31.022Z,25.36
2018-08-10T00:26:11.601Z,25.35
2018-08-10T00:26:52.169Z,25.35
2018-08-10T00:27:32.734Z,25.35
2018-08-10T00:28:13.311Z,25.32
2018-08-10T00:28:53.903Z,25.36
2018-08-10T00:29:34.472Z,25.29
2018-08-10T00:30:15.048Z,25.36
2018-08-10T00:30:55.623Z,25.38
2018-08-10T00:31:36.189Z,25.4
2018-08-10T00:32:16.750Z,25.32
2018-08-10T00:32:57.325Z,25.35
2018-08-10T00:33:37.888Z,25.38
2018-08-10T00:34:18.454Z,25.31
2018-08-10T00:34:59.013Z,25.29
2018-08-10T00:35:39.583Z,25.32
2018-08-10T00:36:20.149Z,25.33
2018-08-10T00:37:00.714Z,25.28
2018-08-10T00:37:41.292Z,25.32
2018-08-10T00:38:21.851Z,25.26
2018-08-10T00:39:02.421Z,25.22
2018-08-10T00:39:42.970Z,25.33
2018-08-10T00:40:23.543Z,25.29
2018-08-10T00:41:04.113Z,25.28
2018-08-10T00:41:44.688Z,25.23
2018-08-10T00:42:25.264Z,25.32
2018-08-10T00:43:05.821Z,25.18
2018-08-10T00:43:46.383Z,25.21
2018-08-10T00:44:26.951Z,25.17
2018-08-10T00:45:07.518Z,25.23
2018-08-10T00:45:48.086Z,25.18
2018-08-10T00:46:28.659Z,25.25
2018-08-10T00:47:09.225Z,25.21
2018-08-10T00:47:49.799Z,25.21
2018-08-10T00:48:30.345Z,25.23
2018-08-10T00:49:10.912Z,25.16
2018-08-10T00:49:51.475Z,25.17
2018-08-10T00:50:32.048Z,25.26
2018-08-10T00:51:12.615Z,25.26
2018-08-10T00:51:53.179Z,25.23
2018-08-10T00:52:33.743Z,25.21
2018-08-10T00:53:14.325Z,25.21
2018-08-10T00:53:54.906Z,25.23
2018-08-10T00:54:35.482Z,25.23
2018-08-10T00:55:16.052Z,25.23
2018-08-10T00:55:56.597Z,25.25
2018-08-10T00:56:37.152Z,25.25
2018-08-10T00:57:17.721Z,25.26
2018-08-10T00:57:58.277Z,25.29
2018-08-10T00:58:38.845Z,25.28
2018-08-10T00:59:19.416Z,25.31
2018-08-10T00:59:59.985Z,25.32
2018-08-10T01:00:40.562Z,25.32
2018-08-10T01:01:21.124Z,25.32
2018-08-10T01:02:01.680Z,25.23
2018-08-10T01:02:42.249Z,25.32
2018-08-10T01:03:22.817Z,25.28
2018-08-10T01:04:03.383Z,25.32
2018-08-10T01:04:43.967Z,25.21
2018-08-10T01:05:24.520Z,25.21
2018-08-10T01:06:05.091Z,25.32
2018-08-10T01:06:45.651Z,25.21
2018-08-10T01:07:26.221Z,25.29
2018-08-10T01:08:06.820Z,25.25
2018-08-10T01:08:47.373Z,25.17
2018-08-10T01:09:27.955Z,25.25
2018-08-10T01:10:08.510Z,25.21
2018-08-10T01:10:49.067Z,25.23
2018-08-10T01:11:29.660Z,25.26
2018-08-10T01:12:10.222Z,25.21
2018-08-10T01:12:50.790Z,25.28
2018-08-10T01:13:31.486Z,25.22
2018-08-10T01:14:11.918Z,25.25
2018-08-10T01:14:52.493Z,25.31
2018-08-10T01:15:33.047Z,25.28
2018-08-10T01:16:13.615Z,25.28
2018-08-10T01:16:54.179Z,25.14
2018-08-10T01:17:34.744Z,25.25
2018-08-10T01:18:15.306Z,25.29
2018-08-10T01:18:55.880Z,25.22
2018-08-10T01:19:36.445Z,25.18
2018-08-10T01:20:16.999Z,25.18
2018-08-10T01:20:57.564Z,25.28
2018-08-10T01:21:38.136Z,25.16
2018-08-10T01:22:18.703Z,25.17
2018-08-10T01:22:59.251Z,25.22
2018-08-10T01:23:39.818Z,25.22
2018-08-10T01:24:20.370Z,25.16
2018-08-10T01:25:00.934Z,25.14
2018-08-10T01:25:41.507Z,25.14
2018-08-10T01:26:22.078Z,25.17
2018-08-10T01:27:02.652Z,25.18
2018-08-10T01:27:43.229Z,25.17
2018-08-10T01:28:23.802Z,25.06
2018-08-10T01:29:04.353Z,25.18
2018-08-10T01:29:44.917Z,25.21
2018-08-10T01:30:25.489Z,25.14
2018-08-10T01:31:06.059Z,25.13
2018-08-10T01:31:46.618Z,25.14
2018-08-10T01:32:27.176Z,25.1
2018-08-10T01:33:07.740Z,25.08
2018-08-10T01:33:48.338Z,25.11
2018-08-10T01:34:28.912Z,25.13
2018-08-10T01:35:09.542Z,25.13
2018-08-10T01:35:50.133Z,25.13
2018-08-10T01:36:30.670Z,25.11
2018-08-10T01:37:11.223Z,25.08
2018-08-10T01:37:51.790Z,25.11
2018-08-10T01:38:32.411Z,25.1
2018-08-10T01:39:12.972Z,25.1
2018-08-10T01:39:53.538Z,25.1
2018-08-10T01:40:34.100Z,25.04
2018-08-10T01:41:14.660Z,25.01
2018-08-10T01:41:55.228Z,25.04
2018-08-10T01:42:35.854Z,24.99
2018-08-10T01:43:16.421Z,25.04
2018-08-10T01:43:57.008Z,25.04
2018-08-10T01:44:37.629Z,25.07
2018-08-10T01:45:18.201Z,25.06
2018-08-10T01:45:58.772Z,25.04
2018-08-10T01:46:39.343Z,25.06
2018-08-10T01:47:19.901Z,24.98
2018-08-10T01:48:00.474Z,25.01
2018-08-10T01:48:41.036Z,25.04
2018-08-10T01:49:21.595Z,25.06
2018-08-10T01:50:02.162Z,25.04
2018-08-10T01:50:42.737Z,25.06
2018-08-10T01:51:23.289Z,25.06
2018-08-10T01:52:03.850Z,25.03
2018-08-10T01:52:44.418Z,24.96
2018-08-10T01:53:24.987Z,25.03
2018-08-10T01:54:05.557Z,25.03
2018-08-10T01:54:46.134Z,24.93
2018-08-10T01:55:26.701Z,25.01
2018-08-10T01:56:07.268Z,24.98
2018-08-10T01:56:47.836Z,24.96
2018-08-10T01:57:28.389Z,24.96
2018-08-10T01:58:08.961Z,24.89
2018-08-10T01:58:49.535Z,24.93
2018-08-10T01:59:30.097Z,24.92
2018-08-10T02:00:10.668Z,24.98
2018-08-10T02:00:51.226Z,24.96
2018-08-10T02:01:31.790Z,24.92
2018-08-10T02:02:12.412Z,24.95
2018-08-10T02:02:53.005Z,24.89
2018-08-10T02:03:33.577Z,24.96
2018-08-10T02:04:14.163Z,25.01
2018-08-10T02:04:54.713Z,24.92
2018-08-10T02:05:35.272Z,24.92
2018-08-10T02:06:15.834Z,24.98
2018-08-10T02:06:56.419Z,24.96
2018-08-10T02:07:36.981Z,24.95
2018-08-10T02:08:17.559Z,24.92
2018-08-10T02:08:58.116Z,24.91
2018-08-10T02:09:38.685Z,24.93
2018-08-10T02:10:19.250Z,24.93
2018-08-10T02:10:59.826Z,24.95
2018-08-10T02:11:40.408Z,24.96
2018-08-10T02:12:20.980Z,24.99
2018-08-10T02:13:01.540Z,24.93
2018-08-10T02:13:42.096Z,24.93
2018-08-10T02:14:22.681Z,24.96
2018-08-10T02:15:03.234Z,24.95
2018-08-10T02:15:43.792Z,24.95
2018-08-10T02:16:24.381Z,25.01
2018-08-10T02:17:04.920Z,24.96
2018-08-10T02:17:45.476Z,24.93
2018-08-10T02:18:26.049Z,24.93
2018-08-10T02:19:06.599Z,25.01
2018-08-10T02:19:47.155Z,24.95
2018-08-10T02:20:27.723Z,24.95
2018-08-10T02:21:08.288Z,24.96
2018-08-10T02:21:48.864Z,24.95
2018-08-10T02:22:29.442Z,24.89
2018-08-10T02:23:10.002Z,24.86
2018-08-10T02:23:50.560Z,24.93
2018-08-10T02:24:31.115Z,24.85
2018-08-10T02:25:11.706Z,24.81
2018-08-10T02:25:52.265Z,24.81
2018-08-10T02:26:32.916Z,24.91
2018-08-10T02:27:13.476Z,24.76
2018-08-10T02:27:54.056Z,24.76
2018-08-10T02:28:34.616Z,24.88
2018-08-10T02:29:15.182Z,24.74
2018-08-10T02:29:55.736Z,24.73
2018-08-10T02:30:36.313Z,24.85
2018-08-10T02:31:16.877Z,24.86
2018-08-10T02:31:57.447Z,24.76
2018-08-10T02:32:38.022Z,24.86
2018-08-10T02:33:18.589Z,24.78
2018-08-10T02:33:59.154Z,24.8
2018-08-10T02:34:39.740Z,24.86
2018-08-10T02:35:20.337Z,24.73
2018-08-10T02:36:00.931Z,24.84
2018-08-10T02:36:41.472Z,24.8
2018-08-10T02:37:22.068Z,24.78
2018-08-10T02:38:02.617Z,24.7
2018-08-10T02:38:43.264Z,24.7
2018-08-10T02:39:23.835Z,24.85
2018-08-10T02:40:04.432Z,24.74
2018-08-10T02:40:45.027Z,24.88
2018-08-10T02:41:25.575Z,24.76
2018-08-10T02:42:06.143Z,24.74
2018-08-10T02:42:46.706Z,24.8
2018-08-10T02:43:27.270Z,24.76
2018-08-10T02:44:07.832Z,24.76
2018-08-10T02:44:48.386Z,24.8
2018-08-10T02:45:28.954Z,24.91
2018-08-10T02:46:09.515Z,24.73
2018-08-10T02:46:50.076Z,24.74
2018-08-10T02:47:30.653Z,24.78
2018-08-10T02:48:11.214Z,24.77
2018-08-10T02:48:51.771Z,24.69
2018-08-10T02:49:32.344Z,24.76
2018-08-10T02:50:12.942Z,24.76
2018-08-10T02:50:53.500Z,24.74
2018-08-10T02:51:34.054Z,24.76
2018-08-10T02:52:14.617Z,24.74
2018-08-10T02:52:55.192Z,24.77
2018-08-10T02:53:35.760Z,24.73
2018-08-10T02:54:16.316Z,24.8
2018-08-10T02:54:56.886Z,24.74
2018-08-10T02:55:37.447Z,24.77
2018-08-10T02:56:18.015Z,24.76
2018-08-10T02:56:58.577Z,24.77
2018-08-10T02:57:39.133Z,24.74
2018-08-10T02:58:19.698Z,24.73
2018-08-10T02:59:00.267Z,24.74
2018-08-10T02:59:40.830Z,24.77
2018-08-10T03:00:21.415Z,24.77
2018-08-10T03:01:01.959Z,24.73
2018-08-10T03:01:42.529Z,24.77
2018-08-10T03:02:23.150Z,24.78
2018-08-10T03:03:03.731Z,24.81
2018-08-10T03:03:44.297Z,24.76
2018-08-10T03:04:24.856Z,24.78
2018-08-10T03:05:05.426Z,24.76
2018-08-10T03:05:46.057Z,24.78
2018-08-10T03:06:26.620Z,24.77
2018-08-10T03:07:07.181Z,24.8
2018-08-10T03:07:47.801Z,24.73
2018-08-10T03:08:28.387Z,24.73
2018-08-10T03:09:08.956Z,24.73
2018-08-10T03:09:49.524Z,24.73
2018-08-10T03:10:30.082Z,24.66
2018-08-10T03:11:10.656Z,24.7
2018-08-10T03:11:51.211Z,24.69
2018-08-10T03:12:31.782Z,24.65
2018-08-10T03:13:12.346Z,24.68
2018-08-10T03:13:52.930Z,24.69
2018-08-10T03:14:33.490Z,24.61
2018-08-10T03:15:14.064Z,24.6
2018-08-10T03:15:54.623Z,24.6
2018-08-10T03:16:35.195Z,24.63
2018-08-10T03:17:15.753Z,24.61
2018-08-10T03:17:56.324Z,24.68
2018-08-10T03:18:36.889Z,24.61
2018-08-10T03:19:17.467Z,24.68
2018-08-10T03:19:58.075Z,24.66
2018-08-10T03:20:38.628Z,24.69
2018-08-10T03:21:19.209Z,24.77
2018-08-10T03:21:59.784Z,24.73
2018-08-10T03:22:40.376Z,24.73
2018-08-10T03:23:20.946Z,24.78
2018-08-10T03:24:01.521Z,24.7
2018-08-10T03:24:42.109Z,24.74
2018-08-10T03:25:22.778Z,24.74
2018-08-10T03:26:03.256Z,24.77
2018-08-10T03:26:43.834Z,24.77
2018-08-10T03:27:24.397Z,24.74
2018-08-10T03:28:04.967Z,24.76
2018-08-10T03:28:45.535Z,24.77
2018-08-10T03:29:26.104Z,24.74
2018-08-10T03:30:06.663Z,24.7
2018-08-10T03:30:47.218Z,24.78
2018-08-10T03:31:27.789Z,24.8
2018-08-10T03:32:08.379Z,24.76
2018-08-10T03:32:48.945Z,24.78
2018-08-10T03:33:29.506Z,24.77
2018-08-10T03:34:10.060Z,24.78
2018-08-10T03:34:50.635Z,24.77
2018-08-10T03:35:31.211Z,24.8
2018-08-10T03:36:11.774Z,24.76
2018-08-10T03:36:52.331Z,24.73
2018-08-10T03:37:32.897Z,24.73
2018-08-10T03:38:13.501Z,24.77
2018-08-10T03:38:54.052Z,24.76
2018-08-10T03:39:34.649Z,24.74
2018-08-10T03:40:15.196Z,24.88
2018-08-10T03:40:55.760Z,24.77
2018-08-10T03:41:36.321Z,24.74
2018-08-10T03:42:16.889Z,24.88
2018-08-10T03:42:57.604Z,24.92
2018-08-10T03:43:38.159Z,24.7
2018-08-10T03:44:18.736Z,24.7
2018-08-10T03:44:59.308Z,24.7
2018-08-10T03:45:39.872Z,24.77
2018-08-10T03:46:20.441Z,24.73
2018-08-10T03:47:00.998Z,24.73
2018-08-10T03:47:41.566Z,24.76
2018-08-10T03:48:22.130Z,24.76
2018-08-10T03:49:02.692Z,24.73
2018-08-10T03:49:43.308Z,24.7
2018-08-10T03:50:23.841Z,24.69
2018-08-10T03:51:04.489Z,24.7
2018-08-10T03:51:45.040Z,24.73
2018-08-10T03:52:25.610Z,24.77
2018-08-10T03:53:06.191Z,24.74
2018-08-10T03:53:46.777Z,24.76
2018-08-10T03:54:27.346Z,24.8
2018-08-10T03:55:07.910Z,24.76
2018-08-10T03:55:48.717Z,24.7
2018-08-10T03:56:29.315Z,24.76
2018-08-10T03:57:09.929Z,24.8
2018-08-10T03:57:50.490Z,24.7
2018-08-10T03:58:31.149Z,24.74
2018-08-10T03:59:11.724Z,24.77
2018-08-10T03:59:52.282Z,24.68
2018-08-10T04:00:32.854Z,24.76
2018-08-10T04:01:13.478Z,24.76
2018-08-10T04:01:54.054Z,24.73
2018-08-10T04:02:34.661Z,24.84
2018-08-10T04:03:15.243Z,24.68
2018-08-10T04:03:55.803Z,24.85
2018-08-10T04:04:36.362Z,24.7
2018-08-10T04:05:16.940Z,24.74
2018-08-10T04:05:57.539Z,24.86
2018-08-10T04:06:38.131Z,24.77
2018-08-10T04:07:18.684Z,24.91
2018-08-10T04:07:59.243Z,24.76
2018-08-10T04:08:39.821Z,24.8
2018-08-10T04:09:20.368Z,24.76
2018-08-10T04:10:00.930Z,24.74
2018-08-10T04:10:41.500Z,24.86
2018-08-10T04:11:22.067Z,24.85
2018-08-10T04:12:02.793Z,24.76
2018-08-10T04:12:43.361Z,24.76
2018-08-10T04:13:23.934Z,24.77
2018-08-10T04:14:04.525Z,24.77
2018-08-10T04:14:45.084Z,24.78
2018-08-10T04:15:25.654Z,24.77
2018-08-10T04:16:06.208Z,24.74
2018-08-10T04:16:46.780Z,24.77
2018-08-10T04:17:27.340Z,24.86
2018-08-10T04:18:07.905Z,24.73
2018-08-10T04:18:48.527Z,24.78
2018-08-10T04:19:29.271Z,24.74
2018-08-10T04:20:09.833Z,24.69
2018-08-10T04:20:50.436Z,24.76
2018-08-10T04:21:31.003Z,24.73
2018-08-10T04:22:11.571Z,24.76
2018-08-10T04:22:52.125Z,24.73
2018-08-10T04:23:32.686Z,24.65
2018-08-10T04:24:13.276Z,24.68
2018-08-10T04:24:53.887Z,24.76
2018-08-10T04:25:34.440Z,24.77
2018-08-10T04:26:15.078Z,24.76
2018-08-10T04:26:55.635Z,24.73
2018-08-10T04:27:36.204Z,24.7
2018-08-10T04:28:16.771Z,24.7
2018-08-10T04:28:57.330Z,24.7
2018-08-10T04:29:37.924Z,24.77
2018-08-10T04:30:18.518Z,24.66
2018-08-10T04:30:59.067Z,24.69
2018-08-10T04:31:39.625Z,24.69
2018-08-10T04:32:20.185Z,24.66
2018-08-10T04:33:00.736Z,24.66
2018-08-10T04:33:41.304Z,24.61
2018-08-10T04:34:21.873Z,24.63
2018-08-10T04:35:02.473Z,24.65
2018-08-10T04:35:43.037Z,24.57
2018-08-10T04:36:23.673Z,24.65
2018-08-10T04:37:04.237Z,24.61
2018-08-10T04:37:44.859Z,24.63
2018-08-10T04:38:25.553Z,24.61
2018-08-10T04:39:05.997Z,24.66
2018-08-10T04:39:46.552Z,24.65
2018-08-10T04:40:27.235Z,24.65
2018-08-10T04:41:07.818Z,24.66
2018-08-10T04:41:48.372Z,24.63
2018-08-10T04:42:28.925Z,24.63
2018-08-10T04:43:09.496Z,24.57
2018-08-10T04:43:50.056Z,24.65
2018-08-10T04:44:30.623Z,24.65
2018-08-10T04:45:11.197Z,24.66
2018-08-10T04:45:51.757Z,24.57
2018-08-10T04:46:32.325Z,24.61
2018-08-10T04:47:12.896Z,24.65
2018-08-10T04:47:53.479Z,24.6
2018-08-10T04:48:34.056Z,24.65
2018-08-10T04:49:14.641Z,24.6
2018-08-10T04:49:55.249Z,24.6
2018-08-10T04:50:35.813Z,24.61
2018-08-10T04:51:16.378Z,24.65
2018-08-10T04:51:56.950Z,24.63
2018-08-10T04:52:37.496Z,24.57
2018-08-10T04:53:18.129Z,24.6
2018-08-10T04:53:58.707Z,24.61
2018-08-10T04:54:39.278Z,24.63
2018-08-10T04:55:19.927Z,24.61
2018-08-10T04:56:00.417Z,24.55
2018-08-10T04:56:40.994Z,24.61
2018-08-10T04:57:21.564Z,24.61
2018-08-10T04:58:02.123Z,24.5
2018-08-10T04:58:42.701Z,24.54
2018-08-10T04:59:23.280Z,24.5
2018-08-10T05:00:03.837Z,24.5
2018-08-10T05:00:44.402Z,24.51
2018-08-10T05:01:24.961Z,24.48
2018-08-10T05:02:05.569Z,24.54
2018-08-10T05:02:46.115Z,24.43
2018-08-10T05:03:26.682Z,24.48
2018-08-10T05:04:07.243Z,24.55
2018-08-10T05:04:47.793Z,24.5
2018-08-10T05:05:28.371Z,24.5
2018-08-10T05:06:08.941Z,24.5
2018-08-10T05:06:49.497Z,24.45
2018-08-10T05:07:30.058Z,24.33
2018-08-10T05:08:10.626Z,24.45
2018-08-10T05:08:51.182Z,24.45
2018-08-10T05:09:31.798Z,24.42
2018-08-10T05:10:12.376Z,24.4
2018-08-10T05:10:52.936Z,24.38
2018-08-10T05:11:33.502Z,24.47
2018-08-10T05:12:14.071Z,24.4
2018-08-10T05:12:54.657Z,24.39
2018-08-10T05:13:35.264Z,24.43
2018-08-10T05:14:15.861Z,24.35
2018-08-10T05:14:56.439Z,24.48
2018-08-10T05:15:37.031Z,24.4
2018-08-10T05:16:17.573Z,24.45
2018-08-10T05:16:58.195Z,24.4
2018-08-10T05:17:38.766Z,24.42
2018-08-10T05:18:19.332Z,24.39
2018-08-10T05:18:59.919Z,24.48
2018-08-10T05:19:40.479Z,24.45
2018-08-10T05:20:21.049Z,24.45
2018-08-10T05:21:01.634Z,24.45
2018-08-10T05:21:42.199Z,24.43
2018-08-10T05:22:22.767Z,24.53
2018-08-10T05:23:03.328Z,24.48
2018-08-10T05:23:43.894Z,24.42
2018-08-10T05:24:24.460Z,24.57
2018-08-10T05:25:05.060Z,24.5
2018-08-10T05:25:45.661Z,24.54
2018-08-10T05:26:26.191Z,24.4
2018-08-10T05:27:06.770Z,24.39
2018-08-10T05:27:47.337Z,24.35
2018-08-10T05:28:27.892Z,24.23
2018-08-10T05:29:08.449Z,24.17
2018-08-10T05:29:49.021Z,24.17
2018-08-10T05:30:29.589Z,24.16
2018-08-10T05:31:10.152Z,24.23
2018-08-10T05:31:50.707Z,24.11
2018-08-10T05:32:31.297Z,24.1
2018-08-10T05:33:11.851Z,24.14
2018-08-10T05:33:52.410Z,24.1
2018-08-10T05:34:32.980Z,24.03
2018-08-10T05:35:13.542Z,24.06
2018-08-10T05:35:54.105Z,24.03
2018-08-10T05:36:34.667Z,24.02
2018-08-10T05:37:15.228Z,23.96
2018-08-10T05:37:55.793Z,24.06
2018-08-10T05:38:36.359Z,23.92
2018-08-10T05:39:16.916Z,24.01
2018-08-10T05:39:57.490Z,23.91
2018-08-10T05:40:38.049Z,23.93
2018-08-10T05:41:18.616Z,23.95
2018-08-10T05:41:59.177Z,23.92
2018-08-10T05:42:39.756Z,23.99
2018-08-10T05:43:20.330Z,23.95
2018-08-10T05:44:00.949Z,23.98
2018-08-10T05:44:41.462Z,23.96
2018-08-10T05:45:22.026Z,23.91
2018-08-10T05:46:02.597Z,23.98
2018-08-10T05:46:43.208Z,23.96
2018-08-10T05:47:23.730Z,23.92
2018-08-10T05:48:04.287Z,23.95
2018-08-10T05:48:44.852Z,23.91
2018-08-10T05:49:25.420Z,23.91
2018-08-10T05:50:05.989Z,23.86
2018-08-10T05:50:46.567Z,23.88
2018-08-10T05:51:27.140Z,23.86
2018-08-10T05:52:07.706Z,23.87
2018-08-10T05:52:48.274Z,23.87
2018-08-10T05:53:28.866Z,23.88
2018-08-10T05:54:09.401Z,23.87
2018-08-10T05:54:50.050Z,23.87
2018-08-10T05:55:30.611Z,23.87
2018-08-10T05:56:11.173Z,23.84
2018-08-10T05:56:51.738Z,23.83
2018-08-10T05:57:32.346Z,23.96
2018-08-10T05:58:12.880Z,23.87
2018-08-10T05:58:53.445Z,23.87
2018-08-10T05:59:34.010Z,23.87
2018-08-10T06:00:14.589Z,23.84
2018-08-10T06:00:55.288Z,23.77
2018-08-10T06:01:35.860Z,23.71
2018-08-10T06:02:16.422Z,23.71
2018-08-10T06:02:56.983Z,23.62
2018-08-10T06:03:37.633Z,23.54
2018-08-10T06:04:18.143Z,23.51
2018-08-10T06:04:58.707Z,23.62
2018-08-10T06:05:39.287Z,23.56
2018-08-10T06:06:19.895Z,23.51
2018-08-10T06:07:00.458Z,23.48
2018-08-10T06:07:41.015Z,23.63
2018-08-10T06:08:21.619Z,23.59
2018-08-10T06:09:02.186Z,23.58
2018-08-10T06:09:42.744Z,23.61
2018-08-10T06:10:23.361Z,23.59
2018-08-10T06:11:03.934Z,23.55
2018-08-10T06:11:44.508Z,23.5
2018-08-10T06:12:25.060Z,23.47
2018-08-10T06:13:05.677Z,23.54
2018-08-10T06:13:46.209Z,23.47
2018-08-10T06:14:26.786Z,23.5
2018-08-10T06:15:07.352Z,23.5
2018-08-10T06:15:47.915Z,23.48
2018-08-10T06:16:28.472Z,23.5
2018-08-10T06:17:09.037Z,23.46
2018-08-10T06:17:49.594Z,23.47
2018-08-10T06:18:30.166Z,23.47
2018-08-10T06:19:10.724Z,23.44
2018-08-10T06:19:51.368Z,23.4
2018-08-10T06:20:31.905Z,23.34
2018-08-10T06:21:12.452Z,23.37
2018-08-10T06:21:53.020Z,23.32
2018-08-10T06:22:33.582Z,23.31
2018-08-10T06:23:14.155Z,23.34
2018-08-10T06:23:54.722Z,23.4
2018-08-10T06:24:35.280Z,23.31
2018-08-10T06:25:15.912Z,23.39
2018-08-10T06:25:56.492Z,23.34
2018-08-10T06:26:37.064Z,23.27
2018-08-10T06:27:17.648Z,23.39
2018-08-10T06:27:58.188Z,23.25
2018-08-10T06:28:38.749Z,23.31
2018-08-10T06:29:19.313Z,23.31
2018-08-10T06:29:59.870Z,23.21
2018-08-10T06:30:40.437Z,23.18
2018-08-10T06:31:21.005Z,23.15
2018-08-10T06:32:01.574Z,23.17
2018-08-10T06:32:42.201Z,23.18
2018-08-10T06:33:22.769Z,23.13
2018-08-10T06:34:03.428Z,23.12
2018-08-10T06:34:43.920Z,23.15
2018-08-10T06:35:24.481Z,23.1
2018-08-10T06:36:05.047Z,23.08
2018-08-10T06:36:45.602Z,22.98
2018-08-10T06:37:26.198Z,23.02
2018-08-10T06:38:06.758Z,23.03
2018-08-10T06:38:47.345Z,22.93
2018-08-10T06:39:27.902Z,22.88
2018-08-10T06:40:08.461Z,22.87
2018-08-10T06:40:49.884Z,22.81
2018-08-10T06:41:30.456Z,22.76
2018-08-10T06:42:11.035Z,22.84
2018-08-10T06:42:51.601Z,22.81
2018-08-10T06:43:32.205Z,22.81
2018-08-10T06:44:12.725Z,22.8
2018-08-10T06:44:53.424Z,22.78
2018-08-10T06:45:33.906Z,22.88
2018-08-10T06:46:14.468Z,22.88
2018-08-10T06:46:55.029Z,22.88
2018-08-10T06:47:35.621Z,22.96
2018-08-10T06:48:16.181Z,22.96
2018-08-10T06:48:56.762Z,23.02
2018-08-10T06:49:37.357Z,23.12
2018-08-10T06:50:17.975Z,23.12
2018-08-10T06:50:58.491Z,23.13
2018-08-10T06:51:39.046Z,23.17
2018-08-10T06:52:19.623Z,23.08
2018-08-10T06:53:00.181Z,23.21
2018-08-10T06:53:40.747Z,23.1
2018-08-10T06:54:21.308Z,23.1
2018-08-10T06:55:01.889Z,23.17
2018-08-10T06:55:42.517Z,23.13
2018-08-10T06:56:23.155Z,23.18
2018-08-10T06:57:03.738Z,23.2
2018-08-10T06:57:44.279Z,23.2
2018-08-10T06:58:24.857Z,23.15
2018-08-10T06:59:05.728Z,23.1
2018-08-10T06:59:46.630Z,23.2
2018-08-10T07:00:27.515Z,23.15
2018-08-10T07:01:08.163Z,23.15
2018-08-10T07:01:48.912Z,23.15
2018-08-10T07:02:29.590Z,23.09
2018-08-10T07:03:10.282Z,23.1
2018-08-10T07:03:50.846Z,23.06
2018-08-10T07:04:31.457Z,23.02
2018-08-10T07:05:12.668Z,23.03
2018-08-10T07:05:53.491Z,23.05
2018-08-10T07:06:34.403Z,22.96
2018-08-10T07:07:15.160Z,23.03
2018-08-10T07:07:56.863Z,23
2018-08-10T07:08:37.830Z,23.09
2018-08-10T07:09:18.759Z,23.03
2018-08-10T07:09:59.643Z,23
2018-08-10T07:10:40.208Z,22.96
2018-08-10T07:11:21.103Z,23.03
2018-08-10T07:12:01.673Z,23.03
2018-08-10T07:12:42.388Z,23.02
2018-08-10T07:13:23.292Z,23.06
2018-08-10T07:14:03.711Z,23.03
2018-08-10T07:14:44.370Z,23.1
2018-08-10T07:15:25.243Z,23.1
2018-08-10T07:16:06.031Z,23.17
2018-08-10T07:16:46.606Z,23.12
2018-08-10T07:17:27.167Z,23.17
2018-08-10T07:18:08.125Z,23.2
2018-08-10T07:18:48.995Z,23.18
2018-08-10T07:19:30.217Z,23.23
2018-08-10T07:20:10.780Z,23.28
2018-08-10T07:20:51.765Z,23.15
2018-08-10T07:21:32.321Z,23.18
2018-08-10T07:22:12.885Z,23.18
2018-08-10T07:22:53.468Z,23.23
2018-08-10T07:23:34.021Z,23.15
2018-08-10T07:24:14.598Z,23.12
2018-08-10T07:24:55.216Z,23.13
2018-08-10T07:25:35.748Z,23.13
2018-08-10T07:26:16.616Z,23.13
2018-08-10T07:26:57.163Z,23.09
2018-08-10T07:27:37.836Z,23.21
2018-08-10T07:28:18.733Z,23.09
2018-08-10T07:28:59.555Z,23.09
2018-08-10T07:29:40.195Z,23.03
2018-08-10T07:30:20.839Z,23.1
2018-08-10T07:31:02.280Z,23.06
2018-08-10T07:31:43.149Z,23.12
2018-08-10T07:32:23.842Z,23.18
2018-08-10T07:33:04.417Z,23.12
2018-08-10T07:33:44.974Z,23.17
2018-08-10T07:34:25.555Z,23.21
2018-08-10T07:35:06.127Z,23.18
2018-08-10T07:35:46.702Z,23.15
2018-08-10T07:36:27.279Z,23.1
2018-08-10T07:37:07.833Z,23.1
2018-08-10T07:37:48.393Z,23.06
2018-08-10T07:38:29.011Z,23.02
2018-08-10T07:39:09.768Z,23
2018-08-10T07:39:50.694Z,22.94
2018-08-10T07:40:31.391Z,22.96
2018-08-10T07:41:11.958Z,22.9
2018-08-10T07:41:52.573Z,22.87
2018-08-10T07:42:33.127Z,22.91
2018-08-10T07:43:13.694Z,22.88
2018-08-10T07:43:54.254Z,22.81
2018-08-10T07:44:34.824Z,22.81
2018-08-10T07:45:15.398Z,22.88
2018-08-10T07:45:55.958Z,22.75
2018-08-10T07:46:36.575Z,22.78
2018-08-10T07:47:17.092Z,22.83
2018-08-10T07:47:57.668Z,22.78
2018-08-10T07:48:38.252Z,22.75
2018-08-10T07:49:18.817Z,22.73
2018-08-10T07:49:59.371Z,22.8
2018-08-10T07:50:39.940Z,22.59
2018-08-10T07:51:20.536Z,22.78
2018-08-10T07:52:01.130Z,22.78
2018-08-10T07:52:41.672Z,22.83
2018-08-10T07:53:22.235Z,22.75
2018-08-10T07:54:02.800Z,22.63
2018-08-10T07:54:43.379Z,22.68
2018-08-10T07:55:23.905Z,22.66
2018-08-10T07:56:04.466Z,22.62
2018-08-10T07:56:45.035Z,22.59
2018-08-10T07:57:25.610Z,22.57
2018-08-10T07:58:06.175Z,22.55
2018-08-10T07:58:46.757Z,22.55
2018-08-10T07:59:27.310Z,22.48
2018-08-10T08:00:07.889Z,22.63
2018-08-10T08:00:48.473Z,22.66
2018-08-10T08:01:29.031Z,22.68
2018-08-10T08:02:09.594Z,22.66
2018-08-10T08:02:50.147Z,22.75
2018-08-10T08:03:30.703Z,22.78
2018-08-10T08:04:11.255Z,22.73
2018-08-10T08:04:51.838Z,22.76
2018-08-10T08:05:32.399Z,22.72
2018-08-10T08:06:12.989Z,22.76
2018-08-10T08:06:53.574Z,22.72
2018-08-10T08:07:34.108Z,22.69
2018-08-10T08:08:14.706Z,22.68
2018-08-10T08:08:55.295Z,22.59
2018-08-10T08:09:35.860Z,22.73
2018-08-10T08:10:16.411Z,22.66
2018-08-10T08:10:56.998Z,22.75
2018-08-10T08:11:37.563Z,22.59
2018-08-10T08:12:18.129Z,22.76
2018-08-10T08:12:58.705Z,22.68
2018-08-10T08:13:39.386Z,22.72
2018-08-10T08:14:19.906Z,22.65
2018-08-10T08:15:00.471Z,22.69
2018-08-10T08:15:41.035Z,22.69
2018-08-10T08:16:21.605Z,22.69
2018-08-10T08:17:02.179Z,22.57
2018-08-10T08:17:42.754Z,22.55
2018-08-10T08:18:23.304Z,22.62
2018-08-10T08:19:03.896Z,22.59
2018-08-10T08:19:44.527Z,22.62
2018-08-10T08:20:25.041Z,22.62
2018-08-10T08:21:05.621Z,22.66
2018-08-10T08:21:46.181Z,22.6
2018-08-10T08:22:26.742Z,22.59
2018-08-10T08:23:07.305Z,22.59
2018-08-10T08:23:47.866Z,22.57
2018-08-10T08:24:28.437Z,22.63
2018-08-10T08:25:09.030Z,22.66
2018-08-10T08:25:49.617Z,22.65
2018-08-10T08:26:30.179Z,22.65
2018-08-10T08:27:10.852Z,22.7
2018-08-10T08:27:51.315Z,22.8
2018-08-10T08:28:31.935Z,22.76
2018-08-10T08:29:12.514Z,22.87
2018-08-10T08:29:53.080Z,22.81
2018-08-10T08:30:33.640Z,22.91
2018-08-10T08:31:14.208Z,22.88
2018-08-10T08:31:54.771Z,22.9
2018-08-10T08:32:35.339Z,22.96
2018-08-10T08:33:15.896Z,23.06
2018-08-10T08:33:56.465Z,23.13
2018-08-10T08:34:37.096Z,23.12
2018-08-10T08:35:17.595Z,23.09
2018-08-10T08:35:58.154Z,23.15
2018-08-10T08:36:38.764Z,23.28
2018-08-10T08:37:19.321Z,23.37
2018-08-10T08:37:59.909Z,23.41
2018-08-10T08:38:40.459Z,23.39
2018-08-10T08:39:21.022Z,23.51
2018-08-10T08:40:01.584Z,23.56
2018-08-10T08:40:42.187Z,23.61
2018-08-10T08:41:22.749Z,23.56
2018-08-10T08:42:03.304Z,23.59
2018-08-10T08:42:43.861Z,23.61
2018-08-10T08:43:24.453Z,23.68
2018-08-10T08:44:05.035Z,23.62
2018-08-10T08:44:45.606Z,23.65
2018-08-10T08:45:26.372Z,23.62